Time;durP1;ratioP1;P1;durP2;ratioP2;P2;SDS_P1;SDS_P2;PMS_P1;PMS_P2;Temp;Humidity;BMP_temperature;BMP_pressure;BME280_temperature;BME280_humidity;BME280_pressure;Samples;Min_cycle;Max_cycle;Signal;HPM_P1;HPM_P2
2023/08/02 00:00:07;;;;;;;5.67;3.10;;;15.70;99.90;;;;;;4951289;28;21045;-65
2023/08/02 00:02:33;;;;;;;4.63;3.20;;;15.70;99.90;;;;;;4953784;28;20460;-65
2023/08/02 00:05:00;;;;;;;6.23;3.40;;;15.70;99.90;;;;;;4953255;28;20476;-65
2023/08/02 00:07:27;;;;;;;4.00;3.20;;;15.70;99.90;;;;;;4952944;28;20482;-65
2023/08/02 00:09:54;;;;;;;4.10;3.70;;;15.80;99.90;;;;;;4953804;28;20467;-65
2023/08/02 00:12:22;;;;;;;4.53;3.13;;;15.70;99.90;;;;;;4953773;28;20461;-65
2023/08/02 00:14:49;;;;;;;4.23;3.07;;;15.80;99.90;;;;;;4953903;28;20474;-65
2023/08/02 00:17:16;;;;;;;3.67;3.00;;;15.80;99.90;;;;;;4951307;28;20825;-65
2023/08/02 00:19:43;;;;;;;4.70;3.97;;;15.80;99.90;;;;;;4953769;28;20498;-65
2023/08/02 00:22:10;;;;;;;5.03;3.40;;;15.80;99.90;;;;;;4953472;28;20457;-65
2023/08/02 00:24:36;;;;;;;6.00;3.70;;;15.80;99.90;;;;;;4953334;28;20473;-65
2023/08/02 00:27:04;;;;;;;4.97;4.27;;;15.80;99.90;;;;;;4961417;28;20461;-65
2023/08/02 00:29:32;;;;;;;7.53;4.10;;;15.90;99.90;;;;;;4954252;28;20452;-65
2023/08/02 00:31:59;;;;;;;3.90;3.60;;;15.90;99.90;;;;;;4956126;28;20524;-65
2023/08/02 00:34:27;;;;;;;3.87;3.50;;;15.90;99.90;;;;;;4961786;28;20870;-65
2023/08/02 00:36:54;;;;;;;3.97;3.67;;;16.00;99.90;;;;;;4970852;28;20519;-66
2023/08/02 00:39:21;;;;;;;3.73;3.43;;;16.00;99.90;;;;;;4971696;28;20483;-66
2023/08/02 00:41:48;;;;;;;7.67;4.10;;;16.10;99.90;;;;;;4972694;28;20459;-66
2023/08/02 00:44:15;;;;;;;6.20;3.13;;;16.10;99.90;;;;;;4976169;28;20479;-65
2023/08/02 00:46:43;;;;;;;4.53;3.57;;;16.10;99.90;;;;;;4983012;28;20457;-65
2023/08/02 00:49:11;;;;;;;3.97;3.30;;;16.20;99.90;;;;;;4988352;28;20460;-66
2023/08/02 00:51:38;;;;;;;5.10;3.57;;;16.20;99.90;;;;;;4981521;28;20547;-65
2023/08/02 00:54:06;;;;;;;4.47;3.13;;;16.20;99.90;;;;;;4989692;28;20894;-66
2023/08/02 00:56:33;;;;;;;3.47;3.17;;;16.20;99.90;;;;;;4990869;28;20491;-65
2023/08/02 00:59:00;;;;;;;4.20;3.80;;;16.20;99.90;;;;;;4991715;28;20494;-65
2023/08/02 01:01:27;;;;;;;5.13;4.37;;;16.30;99.90;;;;;;4991846;28;20482;-65
2023/08/02 01:03:57;;;;;;;4.27;3.53;;;16.30;99.90;;;;;;4991454;28;20562;-65
2023/08/02 01:06:28;;;;;;;4.83;3.07;;;16.30;99.90;;;;;;4991209;28;20465;-65
2023/08/02 01:09:04;;;;;;;3.17;2.60;;;16.30;99.90;;;;;;4991321;28;20443;-65
2023/08/02 01:11:37;;;;;;;5.80;3.27;;;16.30;99.90;;;;;;4991207;28;20559;-65
2023/08/02 01:14:07;;;;;;;3.70;3.40;;;16.30;99.90;;;;;;4991296;28;20845;-65
2023/08/02 01:16:36;;;;;;;5.80;3.47;;;16.30;99.90;;;;;;4990574;28;20454;-65
2023/08/02 01:19:09;;;;;;;5.90;3.63;;;16.30;99.90;;;;;;4991142;28;20492;-65
2023/08/02 01:21:37;;;;;;;4.97;3.67;;;16.30;99.90;;;;;;4991245;28;20453;-65
2023/08/02 01:24:05;;;;;;;3.53;2.63;;;16.30;99.90;;;;;;4991426;28;20502;-65
2023/08/02 01:26:33;;;;;;;3.93;3.63;;;16.30;99.90;;;;;;4990683;28;20876;-65
2023/08/02 01:29:03;;;;;;;4.23;3.83;;;16.30;99.90;;;;;;4991497;28;20453;-66
2023/08/02 01:31:32;;;;;;;4.20;3.60;;;16.30;99.90;;;;;;4991248;28;20458;-65
2023/08/02 01:33:59;;;;;;;3.13;2.83;;;16.30;99.90;;;;;;4990738;28;20487;-65
2023/08/02 01:36:26;;;;;;;3.50;3.20;;;16.30;99.90;;;;;;4990423;28;20538;-65
2023/08/02 01:38:55;;;;;;;5.83;4.10;;;16.30;99.90;;;;;;4988303;28;20491;-65
2023/08/02 01:41:21;;;;;;;7.40;4.30;;;16.30;99.90;;;;;;4979030;28;20460;-65
2023/08/02 01:43:48;;;;;;;2.77;2.40;;;16.30;99.90;;;;;;4990054;28;20838;-66
2023/08/02 01:46:15;;;;;;;5.03;2.70;;;16.20;99.90;;;;;;4990084;28;20575;-65
2023/08/02 01:48:42;;;;;;;3.80;3.10;;;16.30;99.90;;;;;;4990747;28;20441;-65
2023/08/02 01:51:09;;;;;;;4.50;2.97;;;16.30;99.90;;;;;;4990851;28;20825;-65
2023/08/02 01:53:36;;;;;;;4.30;3.80;;;16.30;99.90;;;;;;4989055;28;20466;-65
2023/08/02 01:56:04;;;;;;;3.40;2.80;;;16.20;99.90;;;;;;4989921;28;20461;-65
2023/08/02 01:58:31;;;;;;;6.30;3.90;;;16.20;99.90;;;;;;4990542;28;20567;-65
2023/08/02 02:00:58;;;;;;;4.30;3.47;;;16.20;99.90;;;;;;4990557;28;20954;-65
2023/08/02 02:03:24;;;;;;;5.37;2.53;;;16.20;99.90;;;;;;4990618;28;20481;-65
2023/08/02 02:05:53;;;;;;;3.40;2.80;;;16.20;99.90;;;;;;4989989;28;20800;-66
2023/08/02 02:08:20;;;;;;;4.10;3.37;;;16.10;99.90;;;;;;4990090;28;20463;-65
2023/08/02 02:10:49;;;;;;;7.17;3.33;;;16.10;99.90;;;;;;4990193;28;20543;-65
2023/08/02 02:13:18;;;;;;;4.93;2.80;;;16.10;99.90;;;;;;4989938;28;20995;-65
2023/08/02 02:15:45;;;;;;;5.90;4.17;;;16.00;99.90;;;;;;4990131;28;20459;-65
2023/08/02 02:18:11;;;;;;;4.37;3.10;;;16.10;99.90;;;;;;4989808;28;20486;-65
2023/08/02 02:20:38;;;;;;;5.43;4.20;;;16.00;99.90;;;;;;4990253;28;20506;-65
2023/08/02 02:23:05;;;;;;;2.73;2.53;;;16.00;99.90;;;;;;4989314;28;20461;-65
2023/08/02 02:25:32;;;;;;;3.30;2.97;;;16.00;99.90;;;;;;4990039;28;20452;-65
2023/08/02 02:27:59;;;;;;;4.10;3.80;;;16.00;99.90;;;;;;4989313;28;20447;-65
2023/08/02 02:30:27;;;;;;;6.37;3.90;;;16.00;99.90;;;;;;4989863;28;20452;-65
2023/08/02 02:32:54;;;;;;;2.87;2.27;;;16.00;99.90;;;;;;4989654;28;20459;-66
2023/08/02 02:35:20;;;;;;;4.43;3.20;;;16.00;99.90;;;;;;4988661;28;20457;-65
2023/08/02 02:37:47;;;;;;;4.70;2.93;;;15.90;99.90;;;;;;4988820;28;20570;-65
2023/08/02 02:40:14;;;;;;;4.33;3.47;;;15.90;99.90;;;;;;4989604;28;20681;-65
2023/08/02 02:42:40;;;;;;;4.97;3.63;;;15.90;99.90;;;;;;4990026;28;20844;-65
2023/08/02 02:45:08;;;;;;;3.77;3.47;;;15.90;99.90;;;;;;4989716;28;20471;-65
2023/08/02 02:47:37;;;;;;;2.50;2.30;;;15.90;99.90;;;;;;4989185;28;20459;-65
2023/08/02 02:50:04;;;;;;;3.47;3.17;;;15.90;99.90;;;;;;4989623;28;20450;-65
2023/08/02 02:52:31;;;;;;;5.07;3.63;;;15.80;99.90;;;;;;4987800;28;20983;-66
2023/08/02 02:54:57;;;;;;;2.77;2.57;;;15.80;99.90;;;;;;4989413;28;20487;-65
2023/08/02 02:57:24;;;;;;;6.63;2.97;;;15.70;99.90;;;;;;4988744;28;20451;-65
2023/08/02 02:59:51;;;;;;;4.13;3.60;;;15.70;99.90;;;;;;4989227;28;20482;-65
2023/08/02 03:02:18;;;;;;;4.50;2.83;;;15.60;99.90;;;;;;4989138;28;20455;-65
2023/08/02 03:04:47;;;;;;;3.27;2.53;;;15.60;99.90;;;;;;4988893;28;20474;-65
2023/08/02 03:07:13;;;;;;;8.60;3.43;;;15.50;99.90;;;;;;4988593;28;20481;-65
2023/08/02 03:09:40;;;;;;;4.60;3.77;;;15.50;99.90;;;;;;4989055;28;20443;-65
2023/08/02 03:12:08;;;;;;;4.10;2.67;;;15.50;99.90;;;;;;4989638;28;20477;-66
2023/08/02 03:14:35;;;;;;;4.43;3.07;;;15.40;99.90;;;;;;4989304;28;20479;-65
2023/08/02 03:17:02;;;;;;;3.27;2.63;;;15.40;99.90;;;;;;4988414;28;21006;-65
2023/08/02 03:19:29;;;;;;;3.40;3.10;;;15.40;99.90;;;;;;4988892;28;20486;-65
2023/08/02 03:21:57;;;;;;;3.60;3.30;;;15.30;99.90;;;;;;4988868;28;20983;-65
2023/08/02 03:24:24;;;;;;;4.00;2.83;;;15.30;99.90;;;;;;4989091;28;20470;-65
2023/08/02 03:26:50;;;;;;;5.77;3.53;;;15.30;99.90;;;;;;4988243;28;20451;-65
2023/08/02 03:29:17;;;;;;;3.10;2.80;;;15.30;99.90;;;;;;4988888;28;20455;-65
2023/08/02 03:31:44;;;;;;;5.53;4.00;;;15.20;99.90;;;;;;4988809;28;20458;-65
2023/08/02 03:34:12;;;;;;;4.93;3.10;;;15.20;99.90;;;;;;4988773;28;20489;-65
2023/08/02 03:36:42;;;;;;;5.30;3.50;;;15.20;99.90;;;;;;4988258;28;20947;-65
2023/08/02 03:39:10;;;;;;;9.80;3.90;;;15.20;99.90;;;;;;4989225;28;21173;-65
2023/08/02 03:41:37;;;;;;;4.53;3.53;;;15.20;99.90;;;;;;4988729;28;20462;-65
2023/08/02 03:44:04;;;;;;;4.60;2.77;;;15.20;99.90;;;;;;4988629;28;20561;-65
2023/08/02 03:46:31;;;;;;;6.33;3.90;;;15.20;99.90;;;;;;4988131;28;20452;-65
2023/08/02 03:48:58;;;;;;;4.90;3.70;;;15.10;99.90;;;;;;4985631;28;20454;-65
2023/08/02 03:51:26;;;;;;;4.00;3.00;;;15.10;99.90;;;;;;4988578;28;20454;-65
2023/08/02 03:53:53;;;;;;;3.93;2.50;;;15.10;99.90;;;;;;4986944;28;20475;-65
2023/08/02 03:56:21;;;;;;;4.70;2.67;;;15.10;99.90;;;;;;4987884;28;20904;-65
2023/08/02 03:58:47;;;;;;;5.27;3.20;;;15.10;99.90;;;;;;4988782;28;20450;-65
2023/08/02 04:01:14;;;;;;;4.23;3.03;;;15.10;99.90;;;;;;4989012;28;20541;-65
2023/08/02 04:03:41;;;;;;;6.97;3.10;;;15.10;99.90;;;;;;4988909;28;20537;-66
2023/08/02 04:06:08;;;;;;;4.83;3.13;;;15.10;99.90;;;;;;4988177;28;20461;-65
2023/08/02 04:08:35;;;;;;;7.43;4.60;;;15.10;99.90;;;;;;4988744;28;20458;-65
2023/08/02 04:11:04;;;;;;;3.43;3.13;;;15.10;99.90;;;;;;4988550;28;20474;-65
2023/08/02 04:13:33;;;;;;;2.73;2.50;;;15.00;99.90;;;;;;4988463;28;21334;-66
2023/08/02 04:16:00;;;;;;;3.40;3.10;;;15.10;99.90;;;;;;4987892;28;20451;-65
2023/08/02 04:18:26;;;;;;;4.27;3.87;;;15.10;99.90;;;;;;4988666;28;20555;-65
2023/08/02 04:20:53;;;;;;;3.43;2.67;;;15.10;99.90;;;;;;4988460;28;20497;-65
2023/08/02 04:23:20;;;;;;;4.40;3.43;;;15.20;99.90;;;;;;4988400;28;20481;-65
2023/08/02 04:25:47;;;;;;;3.50;3.20;;;15.20;99.90;;;;;;4988395;28;20455;-66
2023/08/02 04:28:14;;;;;;;5.57;3.40;;;15.20;99.90;;;;;;4988073;28;20534;-65
2023/08/02 04:30:42;;;;;;;3.70;3.37;;;15.20;99.90;;;;;;4988650;28;20836;-65
2023/08/02 04:33:09;;;;;;;7.50;3.47;;;15.20;99.90;;;;;;4988434;28;20486;-65
2023/08/02 04:35:35;;;;;;;5.43;3.27;;;15.30;99.90;;;;;;4988372;28;20541;-65
2023/08/02 04:38:02;;;;;;;3.63;3.23;;;15.30;99.90;;;;;;4987635;28;20898;-65
2023/08/02 04:40:29;;;;;;;3.27;3.03;;;15.30;99.90;;;;;;4987602;28;20545;-66
2023/08/02 04:42:56;;;;;;;4.30;2.90;;;15.30;99.90;;;;;;4988371;28;20458;-65
2023/08/02 04:45:23;;;;;;;3.83;3.43;;;15.40;99.90;;;;;;4988536;28;20460;-65
2023/08/02 04:47:51;;;;;;;4.30;3.80;;;15.40;99.90;;;;;;4991015;28;21270;-65
2023/08/02 04:50:18;;;;;;;3.33;2.57;;;15.40;99.90;;;;;;4991814;28;20442;-65
2023/08/02 04:52:44;;;;;;;3.07;2.77;;;15.40;99.90;;;;;;4990235;28;20484;-65
2023/08/02 04:55:11;;;;;;;3.60;3.27;;;15.50;99.90;;;;;;4991765;28;20482;-65
2023/08/02 04:57:38;;;;;;;3.07;2.33;;;15.40;99.90;;;;;;4991123;28;20533;-65
2023/08/02 05:00:06;;;;;;;6.07;3.13;;;15.50;99.90;;;;;;4991595;28;20489;-65
2023/08/02 05:02:36;;;;;;;4.27;3.87;;;15.50;99.90;;;;;;4991545;28;20469;-65
2023/08/02 05:05:04;;;;;;;4.73;3.20;;;15.50;99.90;;;;;;4991753;28;20537;-65
2023/08/02 05:07:33;;;;;;;3.23;2.90;;;15.50;99.90;;;;;;5004989;23;20605;-63
2023/08/02 05:10:03;;;;;;;5.13;2.83;;;15.50;99.90;;;;;;4972215;28;20813;-63
2023/08/02 05:12:31;;;;;;;3.90;3.50;;;15.60;99.90;;;;;;4972365;28;21120;-63
2023/08/02 05:14:58;;;;;;;3.43;2.93;;;15.60;99.90;;;;;;4971818;28;20448;-63
2023/08/02 05:17:26;;;;;;;4.70;2.77;;;15.70;99.90;;;;;;4971131;28;20479;-63
2023/08/02 05:19:54;;;;;;;3.63;3.30;;;15.70;99.90;;;;;;4972086;28;20488;-63
2023/08/02 05:22:22;;;;;;;4.47;2.80;;;15.70;99.90;;;;;;4972085;28;20452;-63
2023/08/02 05:24:50;;;;;;;4.33;3.87;;;15.80;99.90;;;;;;4971851;28;20552;-63
2023/08/02 05:27:17;;;;;;;6.23;3.03;;;15.80;99.90;;;;;;4971068;28;20484;-63
2023/08/02 05:29:44;;;;;;;3.93;2.80;;;15.80;99.90;;;;;;4981847;28;20907;-63
2023/08/02 05:32:11;;;;;;;3.33;2.57;;;15.90;99.90;;;;;;4981833;28;21226;-63
2023/08/02 05:34:38;;;;;;;4.87;3.40;;;15.90;99.90;;;;;;4954371;28;20457;-63
2023/08/02 05:37:05;;;;;;;4.83;3.43;;;15.90;99.90;;;;;;4966356;28;20570;-63
2023/08/02 05:39:34;;;;;;;4.93;2.83;;;16.00;99.90;;;;;;4952115;28;20458;-63
2023/08/02 05:42:00;;;;;;;3.77;3.30;;;16.00;99.90;;;;;;4952138;28;20467;-63
2023/08/02 05:44:27;;;;;;;3.10;2.80;;;16.00;99.90;;;;;;4952195;28;20837;-63
2023/08/02 05:46:54;;;;;;;2.80;2.70;;;16.00;99.90;;;;;;4951511;28;20539;-63
2023/08/02 05:49:21;;;;;;;3.70;3.07;;;16.10;99.90;;;;;;4951974;28;21025;-63
2023/08/02 05:51:48;;;;;;;3.73;3.37;;;16.10;99.90;;;;;;4957531;28;20441;-64
2023/08/02 05:54:16;;;;;;;5.10;3.57;;;16.10;99.90;;;;;;4964396;28;20477;-63
2023/08/02 05:56:44;;;;;;;2.83;2.40;;;16.10;99.90;;;;;;4974519;28;20456;-63
2023/08/02 05:59:11;;;;;;;2.93;2.43;;;16.10;99.90;;;;;;4967725;28;21180;-63
2023/08/02 06:01:38;;;;;;;3.77;2.77;;;16.20;99.90;;;;;;4956761;28;20501;-63
2023/08/02 06:04:05;;;;;;;4.40;2.63;;;16.20;99.90;;;;;;4969405;28;20448;-63
2023/08/02 06:06:32;;;;;;;5.40;2.63;;;16.20;99.90;;;;;;4970303;28;20461;-63
2023/08/02 06:08:59;;;;;;;4.57;3.33;;;16.20;99.90;;;;;;4970821;28;20470;-63
2023/08/02 06:11:26;;;;;;;3.70;2.67;;;16.20;99.90;;;;;;4970894;28;20444;-63
2023/08/02 06:13:55;;;;;;;2.90;2.70;;;16.20;99.90;;;;;;4971209;28;20978;-63
2023/08/02 06:16:22;;;;;;;3.00;2.63;;;16.20;99.90;;;;;;4970442;28;20451;-63
2023/08/02 06:18:49;;;;;;;6.70;2.90;;;16.30;99.90;;;;;;4971135;28;20503;-63
2023/08/02 06:21:16;;;;;;;4.63;2.93;;;16.30;99.90;;;;;;4970928;28;20491;-63
2023/08/02 06:23:43;;;;;;;3.07;2.77;;;16.30;99.90;;;;;;4970381;28;20887;-63
2023/08/02 06:26:10;;;;;;;3.37;3.07;;;16.30;99.90;;;;;;4968766;28;20462;-64
2023/08/02 06:28:36;;;;;;;5.90;2.33;;;16.40;99.90;;;;;;4970062;28;20480;-63
2023/08/02 06:31:05;;;;;;;3.73;3.43;;;16.40;99.90;;;;;;4970197;28;20528;-63
2023/08/02 06:33:31;;;;;;;3.70;3.10;;;16.40;99.90;;;;;;4969801;28;20452;-63
2023/08/02 06:35:58;;;;;;;3.47;3.17;;;16.40;99.90;;;;;;4969276;28;20894;-63
2023/08/02 06:38:25;;;;;;;4.50;2.67;;;16.40;99.90;;;;;;4974406;28;20469;-63
2023/08/02 06:40:52;;;;;;;3.87;3.47;;;16.40;99.90;;;;;;4956168;28;20498;-63
2023/08/02 06:43:19;;;;;;;3.40;3.07;;;16.40;99.90;;;;;;4973737;28;20487;-63
2023/08/02 06:45:46;;;;;;;4.40;2.80;;;16.50;99.90;;;;;;4979121;28;20463;-63
2023/08/02 06:48:17;;;;;;;3.37;3.07;;;16.50;99.90;;;;;;4978575;28;21015;-64
2023/08/02 06:50:44;;;;;;;3.03;2.80;;;16.50;99.90;;;;;;4950711;28;20537;-64
2023/08/02 06:53:10;;;;;;;4.30;3.53;;;16.50;99.90;;;;;;4950617;28;20457;-63
2023/08/02 06:55:37;;;;;;;3.87;3.47;;;16.50;99.90;;;;;;4950786;28;20479;-63
2023/08/02 06:58:04;;;;;;;4.40;3.73;;;16.50;99.90;;;;;;4950066;28;20473;-64
2023/08/02 07:00:32;;;;;;;3.07;2.77;;;16.50;99.90;;;;;;4950472;28;20495;-64
2023/08/02 07:02:59;;;;;;;2.50;2.30;;;16.50;99.90;;;;;;4950564;28;20462;-64
2023/08/02 07:05:30;;;;;;;3.80;3.10;;;16.50;99.90;;;;;;4950786;28;20545;-64
2023/08/02 07:07:57;;;;;;;3.23;2.93;;;16.50;99.90;;;;;;4968292;28;21071;-63
2023/08/02 07:10:24;;;;;;;4.13;2.93;;;16.60;99.90;;;;;;4970644;28;20460;-63
2023/08/02 07:12:51;;;;;;;3.50;3.20;;;16.60;99.90;;;;;;4967280;28;20459;-64
2023/08/02 07:15:19;;;;;;;4.53;4.13;;;16.60;99.90;;;;;;4977994;28;20535;-64
2023/08/02 07:17:46;;;;;;;4.00;2.57;;;16.60;99.90;;;;;;4963893;28;20575;-64
2023/08/02 07:20:13;;;;;;;3.47;3.20;;;16.70;99.90;;;;;;4977764;28;20450;-64
2023/08/02 07:22:43;;;;;;;3.57;3.33;;;16.70;99.90;;;;;;4977342;28;20838;-63
2023/08/02 07:25:10;;;;;;;3.00;2.60;;;16.70;99.90;;;;;;4978263;28;20452;-64
2023/08/02 07:27:38;;;;;;;3.33;2.73;;;16.70;99.90;;;;;;4977150;28;20488;-63
2023/08/02 07:30:06;;;;;;;3.17;2.80;;;16.70;99.90;;;;;;4979949;28;20544;-63
2023/08/02 07:32:33;;;;;;;3.13;2.93;;;16.70;99.90;;;;;;4972756;28;20472;-64
2023/08/02 07:35:00;;;;;;;5.00;4.27;;;16.70;99.90;;;;;;4977208;28;20462;-63
2023/08/02 07:37:27;;;;;;;3.40;3.10;;;16.70;99.90;;;;;;4969052;28;20593;-62
2023/08/02 07:39:55;;;;;;;4.73;3.50;;;16.70;99.90;;;;;;4993537;28;20550;-63
2023/08/02 07:42:22;;;;;;;5.73;3.73;;;16.70;99.90;;;;;;4994137;28;20491;-63
2023/08/02 07:45:05;;;;;;;3.90;3.50;;;16.70;99.90;;;;;;4995602;28;20459;-63
2023/08/02 07:47:32;;;;;;;4.00;3.70;;;16.70;99.90;;;;;;4992753;28;21102;-62
2023/08/02 07:49:59;;;;;;;5.43;5.03;;;16.70;99.90;;;;;;4997982;28;20445;-64
2023/08/02 07:52:26;;;;;;;5.17;3.40;;;16.70;99.90;;;;;;5000699;28;20581;-64
2023/08/02 07:54:55;;;;;;;3.97;3.57;;;16.80;99.90;;;;;;4994132;28;20961;-63
2023/08/02 07:57:23;;;;;;;2.80;2.60;;;16.80;99.90;;;;;;4990744;28;20553;-63
2023/08/02 07:59:50;;;;;;;3.10;2.90;;;16.70;99.90;;;;;;4997659;28;20452;-63
2023/08/02 08:02:16;;;;;;;4.83;3.13;;;16.70;99.90;;;;;;4987829;28;20500;-64
2023/08/02 08:04:43;;;;;;;4.90;2.60;;;16.70;99.90;;;;;;4996083;28;20459;-63
2023/08/02 08:07:10;;;;;;;3.43;3.03;;;16.70;99.90;;;;;;4989611;28;20881;-64
2023/08/02 08:09:37;;;;;;;3.40;3.10;;;16.80;99.90;;;;;;4996858;28;20644;-65
2023/08/02 08:12:07;;;;;;;3.20;2.90;;;16.80;99.90;;;;;;5001641;28;20448;-64
2023/08/02 08:14:34;;;;;;;3.13;2.90;;;16.80;99.90;;;;;;4993696;28;20468;-64
2023/08/02 08:17:02;;;;;;;3.03;2.83;;;16.80;99.90;;;;;;4994112;28;20516;-64
2023/08/02 08:19:29;;;;;;;3.60;3.30;;;16.80;99.90;;;;;;4993531;28;20454;-65
2023/08/02 08:21:55;;;;;;;3.50;3.20;;;16.90;99.90;;;;;;5000895;28;20491;-64
2023/08/02 08:24:22;;;;;;;3.03;2.80;;;16.90;99.90;;;;;;4994653;28;20455;-64
2023/08/02 08:26:50;;;;;;;3.60;3.27;;;17.00;99.90;;;;;;4998607;28;20461;-64
2023/08/02 08:29:19;;;;;;;6.17;3.40;;;16.90;99.90;;;;;;4999863;28;20873;-64
2023/08/02 08:31:46;;;;;;;3.87;3.50;;;17.00;99.90;;;;;;5006683;28;20529;-64
2023/08/02 08:34:13;;;;;;;3.50;3.20;;;16.90;99.90;;;;;;5005692;28;20546;-64
2023/08/02 08:36:40;;;;;;;3.27;2.97;;;17.00;99.90;;;;;;5009376;28;20447;-64
2023/08/02 08:39:07;;;;;;;3.40;3.17;;;17.00;99.90;;;;;;5007458;28;20547;-64
2023/08/02 08:41:34;;;;;;;3.80;3.17;;;17.00;99.90;;;;;;5000089;28;20488;-64
2023/08/02 08:44:02;;;;;;;3.93;3.10;;;17.10;99.90;;;;;;5011057;28;20454;-64
2023/08/02 08:46:32;;;;;;;3.73;3.43;;;17.10;99.90;;;;;;5009036;28;20542;-63
2023/08/02 08:48:59;;;;;;;3.73;2.90;;;17.10;99.90;;;;;;5010608;28;20486;-64
2023/08/02 08:51:27;;;;;;;3.20;2.80;;;17.20;99.90;;;;;;5010468;28;20530;-64
2023/08/02 08:53:55;;;;;;;3.30;3.00;;;17.20;99.90;;;;;;5010853;28;20451;-64
2023/08/02 08:56:24;;;;;;;3.53;3.23;;;17.30;99.90;;;;;;5009299;28;20970;-64
2023/08/02 08:58:53;;;;;;;4.47;4.07;;;17.20;99.90;;;;;;5010442;28;20846;-64
2023/08/02 09:01:20;;;;;;;4.40;4.00;;;17.20;99.90;;;;;;4984314;28;20485;-64
2023/08/02 09:03:48;;;;;;;3.93;3.37;;;17.30;99.90;;;;;;5000069;28;20456;-64
2023/08/02 09:06:16;;;;;;;3.83;3.43;;;17.30;99.90;;;;;;4995847;28;20457;-64
2023/08/02 09:08:45;;;;;;;3.50;3.20;;;17.30;99.90;;;;;;4973905;28;20485;-64
2023/08/02 09:11:12;;;;;;;3.83;3.53;;;17.30;99.90;;;;;;4985461;28;20541;-64
2023/08/02 09:13:39;;;;;;;4.77;4.27;;;17.40;99.90;;;;;;4978510;28;20531;-63
2023/08/02 09:16:08;;;;;;;4.10;3.70;;;17.40;99.90;;;;;;4993848;28;20492;-63
2023/08/02 09:18:36;;;;;;;3.10;2.80;;;17.40;99.90;;;;;;4993617;28;20607;-63
2023/08/02 09:21:05;;;;;;;3.30;3.00;;;17.40;99.90;;;;;;4984534;28;20485;-64
2023/08/02 09:23:31;;;;;;;5.50;4.00;;;17.40;99.90;;;;;;4989463;28;20457;-64
2023/08/02 09:26:11;;;;;;;4.63;4.23;;;17.40;99.90;;;;;;5000353;28;20992;-64
2023/08/02 09:28:38;;;;;;;5.93;3.90;;;17.40;99.90;;;;;;4992814;28;20580;-64
2023/08/02 09:31:15;;;;;;;3.93;3.63;;;17.50;99.90;;;;;;4974600;28;20456;-64
2023/08/02 09:33:49;;;;;;;5.20;3.93;;;17.50;99.90;;;;;;4990057;28;20835;-64
2023/08/02 09:36:24;;;;;;;3.67;3.37;;;17.40;99.90;;;;;;4975654;28;20461;-63
2023/08/02 09:38:58;;;;;;;4.17;3.63;;;17.50;99.90;;;;;;4987961;28;20971;-64
2023/08/02 09:41:26;;;;;;;3.80;3.43;;;17.50;99.90;;;;;;4983352;28;20857;-64
2023/08/02 09:43:53;;;;;;;5.10;3.67;;;17.60;99.90;;;;;;4980702;28;20946;-62
2023/08/02 09:46:25;;;;;;;4.67;4.20;;;17.60;99.90;;;;;;4988857;28;20452;-63
2023/08/02 09:48:52;;;;;;;4.33;3.93;;;17.60;99.90;;;;;;4990346;28;20484;-64
2023/08/02 09:51:19;;;;;;;5.60;4.80;;;17.60;99.90;;;;;;4982875;28;20451;-63
2023/08/02 09:53:55;;;;;;;4.70;3.60;;;17.60;99.90;;;;;;4978812;28;20459;-64
2023/08/02 09:56:24;;;;;;;5.10;4.60;;;17.60;99.90;;;;;;4988522;28;20526;-64
2023/08/02 09:58:55;;;;;;;3.87;3.47;;;17.60;99.90;;;;;;4972756;28;20471;-64
2023/08/02 10:01:24;;;;;;;4.50;4.10;;;17.60;99.90;;;;;;4983809;28;20501;-65
2023/08/02 10:03:55;;;;;;;4.27;3.90;;;17.60;99.90;;;;;;4979794;28;20456;-64
2023/08/02 10:06:24;;;;;;;3.87;3.27;;;17.70;99.90;;;;;;4988867;28;21080;-64
2023/08/02 10:08:52;;;;;;;4.60;3.73;;;17.70;99.90;;;;;;4972001;28;20587;-64
2023/08/02 10:11:22;;;;;;;3.57;3.23;;;17.70;99.90;;;;;;4982910;28;20833;-64
2023/08/02 10:13:51;;;;;;;5.13;4.07;;;17.70;99.90;;;;;;4979098;28;20457;-64
2023/08/02 10:16:19;;;;;;;4.97;4.60;;;17.70;99.90;;;;;;4995460;28;20531;-64
2023/08/02 10:18:47;;;;;;;4.57;3.33;;;17.70;99.90;;;;;;4988466;28;20476;-64
2023/08/02 10:21:16;;;;;;;3.90;3.60;;;17.70;99.90;;;;;;4974825;28;20599;-64
2023/08/02 10:23:43;;;;;;;4.83;4.33;;;17.70;99.90;;;;;;4990444;28;20474;-64
2023/08/02 10:26:10;;;;;;;7.20;4.23;;;17.60;99.90;;;;;;4987936;28;21097;-64
2023/08/02 10:28:40;;;;;;;4.93;4.53;;;17.70;99.90;;;;;;4983899;28;20488;-64
2023/08/02 10:31:08;;;;;;;5.20;4.80;;;17.60;99.90;;;;;;4990323;28;20465;-64
2023/08/02 10:33:35;;;;;;;7.40;5.37;;;17.70;99.90;;;;;;4993019;28;20899;-64
2023/08/02 10:36:03;;;;;;;7.03;5.63;;;17.60;99.90;;;;;;4999119;28;20456;-64
2023/08/02 10:38:49;;;;;;;3.90;3.60;;;17.70;99.90;;;;;;5000026;28;20481;-64
2023/08/02 10:41:17;;;;;;;5.37;4.70;;;17.60;99.90;;;;;;4993184;28;20453;-64
2023/08/02 10:44:16;;;;;;;6.83;5.03;;;17.60;99.90;;;;;;4996126;28;20465;-65
2023/08/02 10:46:43;;;;;;;7.00;5.30;;;17.60;99.90;;;;;;4993796;28;20935;-65
2023/08/02 10:49:41;;;;;;;5.03;4.40;;;17.60;99.90;;;;;;4996254;28;20542;-65
2023/08/02 10:52:28;;;;;;;6.47;5.43;;;17.60;99.90;;;;;;4981405;28;20523;-65
2023/08/02 10:55:11;;;;;;;7.47;5.63;;;17.50;99.90;;;;;;4983677;28;20496;-65
2023/08/02 10:57:40;;;;;;;6.43;5.37;;;17.50;99.90;;;;;;4989045;28;20846;-65
2023/08/02 11:00:19;;;;;;;6.20;5.30;;;17.50;99.90;;;;;;4988867;28;20553;-64
2023/08/02 11:02:48;;;;;;;8.43;6.03;;;17.50;99.90;;;;;;4990455;28;20578;-64
2023/08/02 11:05:18;;;;;;;6.00;5.27;;;17.50;99.90;;;;;;4991840;28;20502;-65
2023/08/02 11:07:58;;;;;;;5.47;4.97;;;17.60;99.90;;;;;;4989815;28;20494;-65
2023/08/02 11:10:25;;;;;;;8.90;6.27;;;17.50;99.90;;;;;;4992638;28;20451;-65
2023/08/02 11:12:53;;;;;;;5.60;5.07;;;17.60;99.90;;;;;;4989582;28;20448;-64
2023/08/02 11:15:22;;;;;;;5.67;5.13;;;17.50;99.90;;;;;;4995801;28;20448;-65
2023/08/02 11:17:54;;;;;;;5.50;4.70;;;17.60;99.90;;;;;;4988281;28;20478;-64
2023/08/02 11:20:25;;;;;;;5.27;4.77;;;17.70;99.90;;;;;;4997408;28;20441;-65
2023/08/02 11:22:52;;;;;;;6.07;5.57;;;17.70;99.90;;;;;;4990570;28;20488;-64
2023/08/02 11:25:20;;;;;;;5.27;4.77;;;17.80;99.90;;;;;;4996111;28;20458;-64
2023/08/02 11:27:47;;;;;;;5.73;5.10;;;17.80;99.90;;;;;;4990245;28;20496;-65
2023/08/02 11:30:14;;;;;;;7.10;5.27;;;17.90;99.90;;;;;;4999393;28;20555;-64
2023/08/02 11:32:46;;;;;;;4.60;4.20;;;17.90;99.90;;;;;;4983376;28;20551;-65
2023/08/02 11:35:16;;;;;;;5.37;4.90;;;17.90;99.90;;;;;;4996289;28;20476;-65
2023/08/02 11:37:43;;;;;;;7.97;5.43;;;17.90;99.90;;;;;;4996952;28;20476;-65
2023/08/02 11:40:11;;;;;;;5.73;5.23;;;17.90;99.90;;;;;;4999675;28;20452;-65
2023/08/02 11:42:47;;;;;;;5.70;5.20;;;17.90;99.90;;;;;;4997015;28;20602;-65
2023/08/02 11:45:14;;;;;;;6.80;6.20;;;17.90;99.90;;;;;;4997150;28;20444;-66
2023/08/02 11:47:41;;;;;;;5.67;4.63;;;18.00;99.90;;;;;;4978377;28;20465;-66
2023/08/02 11:50:10;;;;;;;5.37;4.97;;;18.00;99.90;;;;;;4978203;28;20459;-65
2023/08/02 11:52:37;;;;;;;6.63;5.63;;;18.00;99.90;;;;;;4982518;28;20481;-65
2023/08/02 11:55:04;;;;;;;6.43;4.90;;;18.00;99.90;;;;;;4989609;28;20953;-66
2023/08/02 11:57:31;;;;;;;5.63;5.00;;;18.10;99.90;;;;;;4976905;28;20466;-66
2023/08/02 11:59:59;;;;;;;5.67;5.17;;;18.10;99.90;;;;;;4966984;28;20464;-65
2023/08/02 12:02:28;;;;;;;5.33;4.87;;;18.20;99.90;;;;;;4977542;28;20493;-65
2023/08/02 12:04:56;;;;;;;5.80;5.10;;;18.20;99.90;;;;;;4969425;28;20464;-66
2023/08/02 12:07:29;;;;;;;8.63;4.97;;;18.20;99.90;;;;;;4969859;28;20483;-66
2023/08/02 12:09:56;;;;;;;5.20;4.70;;;18.30;99.90;;;;;;4976624;28;20446;-65
2023/08/02 12:12:27;;;;;;;5.00;4.50;;;18.30;99.90;;;;;;4971944;28;20452;-65
2023/08/02 12:14:54;;;;;;;5.40;5.00;;;18.30;99.90;;;;;;4984050;28;20453;-65
2023/08/02 12:17:23;;;;;;;5.97;4.70;;;18.30;99.90;;;;;;4999556;28;20473;-65
2023/08/02 12:19:50;;;;;;;5.17;4.70;;;18.30;99.90;;;;;;4990367;28;20847;-65
2023/08/02 12:22:18;;;;;;;6.00;5.40;;;18.30;99.90;;;;;;5001754;28;20520;-65
2023/08/02 12:25:03;;;;;;;5.17;4.73;;;18.30;99.90;;;;;;4998378;28;20464;-64
2023/08/02 12:27:29;;;;;;;5.43;4.93;;;18.30;99.90;;;;;;4999389;28;20470;-65
2023/08/02 12:30:09;;;;;;;5.67;4.47;;;18.30;99.90;;;;;;5002207;28;20554;-64
2023/08/02 12:32:36;;;;;;;4.67;4.27;;;18.30;99.90;;;;;;4994599;28;20456;-64
2023/08/02 12:35:06;;;;;;;9.03;5.00;;;18.30;99.90;;;;;;4975088;28;20456;-64
2023/08/02 12:37:33;;;;;;;6.43;4.80;;;18.40;99.90;;;;;;4982328;28;20473;-64
2023/08/02 12:40:01;;;;;;;4.93;4.37;;;18.40;99.90;;;;;;4983200;28;20507;-64
2023/08/02 12:42:28;;;;;;;9.13;5.27;;;18.40;99.90;;;;;;4991423;28;21040;-64
2023/08/02 12:44:55;;;;;;;7.53;5.33;;;18.40;99.90;;;;;;4982240;28;20480;-64
2023/08/02 12:47:22;;;;;;;6.30;5.27;;;18.50;99.90;;;;;;4997136;28;20949;-64
2023/08/02 12:49:49;;;;;;;6.07;4.60;;;18.50;99.90;;;;;;5001703;28;21329;-64
2023/08/02 12:52:16;;;;;;;4.20;3.80;;;18.60;99.90;;;;;;4996496;28;20444;-64